sensor_id;sensor_type;location;lat;lon;timestamp;P1;durP1;ratioP1;P2;durP2;ratioP2
68375;SDS011;55318;52.068;5.188;2024-01-11T00:00:20;9.21;;;6.1;;
68375;SDS011;55318;52.068;5.188;2024-01-11T00:01:56;11.9;;;6.3;;
68375;SDS011;55318;52.068;5.188;2024-01-11T00:03:32;11.8;;;6.4;;
68375;SDS011;55318;52.068;5.188;2024-01-11T00:06:45;12.8;;;7.2;;
68375;SDS011;55318;52.068;5.188;2024-01-11T00:08:21;14.1;;;6.4;;
68375;SDS011;55318;52.068;5.188;2024-01-11T00:09:57;10.7;;;6.2;;
68375;SDS011;55318;52.068;5.188;2024-01-11T00:13:09;13.3;;;6.1;;
68375;SDS011;55318;52.068;5.188;2024-01-11T00:14:45;13.0;;;5.9;;
68375;SDS011;55318;52.068;5.188;2024-01-11T00:16:21;11.6;;;5.8;;
68375;SDS011;55318;52.068;5.188;2024-01-11T00:17:57;13.9;;;7.0;;
68375;SDS011;55318;52.068;5.188;2024-01-11T00:21:10;11.0;;;5.8;;
68375;SDS011;55318;52.068;5.188;2024-01-11T00:22:46;12.1;;;6.3;;
68375;SDS011;55318;52.068;5.188;2024-01-11T00:24:22;11.9;;;6.8;;
68375;SDS011;55318;52.068;5.188;2024-01-11T00:27:34;11.0;;;6.0;;
68375;SDS011;55318;52.068;5.188;2024-01-11T00:29:10;10.0;;;6.2;;
68375;SDS011;55318;52.068;5.188;2024-01-11T00:30:46;10.6;;;6.8;;
68375;SDS011;55318;52.068;5.188;2024-01-11T00:33:59;10.6;;;5.9;;
68375;SDS011;55318;52.068;5.188;2024-01-11T00:35:35;11.0;;;6.1;;
68375;SDS011;55318;52.068;5.188;2024-01-11T00:37:11;10.4;;;6.4;;
68375;SDS011;55318;52.068;5.188;2024-01-11T00:40:23;11.6;;;6.1;;
68375;SDS011;55318;52.068;5.188;2024-01-11T00:41:59;12.6;;;6.2;;
68375;SDS011;55318;52.068;5.188;2024-01-11T00:43:35;10.7;;;6.7;;
68375;SDS011;55318;52.068;5.188;2024-01-11T00:45:11;11.8;;;6.7;;
68375;SDS011;55318;52.068;5.188;2024-01-11T00:48:23;13.8;;;7.0;;
68375;SDS011;55318;52.068;5.188;2024-01-11T00:49:59;12.0;;;7.0;;
68375;SDS011;55318;52.068;5.188;2024-01-11T00:51:35;9.9;;;6.2;;
68375;SDS011;55318;52.068;5.188;2024-01-11T00:54:48;11.9;;;6.2;;
68375;SDS011;55318;52.068;5.188;2024-01-11T00:56:24;10.21;;;5.7;;
68375;SDS011;55318;52.068;5.188;2024-01-11T00:58:00;9.0;;;5.9;;
68375;SDS011;55318;52.068;5.188;2024-01-11T01:01:12;10.9;;;6.0;;
68375;SDS011;55318;52.068;5.188;2024-01-11T01:02:48;10.21;;;6.2;;
68375;SDS011;55318;52.068;5.188;2024-01-11T01:04:24;10.7;;;6.0;;
68375;SDS011;55318;52.068;5.188;2024-01-11T01:07:36;12.1;;;6.4;;
68375;SDS011;55318;52.068;5.188;2024-01-11T01:09:12;12.1;;;5.7;;
68375;SDS011;55318;52.068;5.188;2024-01-11T01:10:49;13.1;;;6.7;;
68375;SDS011;55318;52.068;5.188;2024-01-11T01:12:25;11.2;;;6.6;;
68375;SDS011;55318;52.068;5.188;2024-01-11T01:15:37;14.4;;;7.7;;
68375;SDS011;55318;52.068;5.188;2024-01-11T01:17:13;11.2;;;6.2;;
68375;SDS011;55318;52.068;5.188;2024-01-11T01:18:49;11.0;;;6.1;;
68375;SDS011;55318;52.068;5.188;2024-01-11T01:22:01;11.4;;;6.7;;
68375;SDS011;55318;52.068;5.188;2024-01-11T01:23:37;10.0;;;5.7;;
68375;SDS011;55318;52.068;5.188;2024-01-11T01:25:13;12.0;;;6.5;;
68375;SDS011;55318;52.068;5.188;2024-01-11T01:28:26;12.9;;;6.5;;
68375;SDS011;55318;52.068;5.188;2024-01-11T01:30:02;14.9;;;7.2;;
68375;SDS011;55318;52.068;5.188;2024-01-11T01:31:39;12.0;;;7.2;;
68375;SDS011;55318;52.068;5.188;2024-01-11T01:33:15;13.3;;;7.1;;
68375;SDS011;55318;52.068;5.188;2024-01-11T01:36:27;12.9;;;8.0;;
68375;SDS011;55318;52.068;5.188;2024-01-11T01:38:03;12.3;;;6.8;;
68375;SDS011;55318;52.068;5.188;2024-01-11T01:39:39;13.2;;;7.5;;
68375;SDS011;55318;52.068;5.188;2024-01-11T01:42:57;12.0;;;7.3;;
68375;SDS011;55318;52.068;5.188;2024-01-11T01:44:33;13.1;;;7.1;;
68375;SDS011;55318;52.068;5.188;2024-01-11T01:46:10;12.8;;;7.6;;
68375;SDS011;55318;52.068;5.188;2024-01-11T01:49:23;14.2;;;7.5;;
68375;SDS011;55318;52.068;5.188;2024-01-11T01:51:00;11.8;;;7.2;;
68375;SDS011;55318;52.068;5.188;2024-01-11T01:52:37;13.4;;;8.0;;
68375;SDS011;55318;52.068;5.188;2024-01-11T01:54:18;12.0;;;6.7;;
68375;SDS011;55318;52.068;5.188;2024-01-11T01:57:33;13.8;;;7.2;;
68375;SDS011;55318;52.068;5.188;2024-01-11T01:59:10;12.3;;;7.3;;
68375;SDS011;55318;52.068;5.188;2024-01-11T02:00:48;13.5;;;7.8;;
68375;SDS011;55318;52.068;5.188;2024-01-11T02:04:04;17.0;;;9.1;;
68375;SDS011;55318;52.068;5.188;2024-01-11T02:05:40;15.2;;;7.5;;
68375;SDS011;55318;52.068;5.188;2024-01-11T02:07:16;16.4;;;8.1;;
68375;SDS011;55318;52.068;5.188;2024-01-11T02:08:53;12.1;;;7.7;;
68375;SDS011;55318;52.068;5.188;2024-01-11T02:12:08;15.8;;;8.2;;
68375;SDS011;55318;52.068;5.188;2024-01-11T02:13:45;16.3;;;8.6;;
68375;SDS011;55318;52.068;5.188;2024-01-11T02:15:21;13.2;;;7.7;;
68375;SDS011;55318;52.068;5.188;2024-01-11T02:18:33;15.8;;;8.0;;
68375;SDS011;55318;52.068;5.188;2024-01-11T02:20:11;13.9;;;7.8;;
68375;SDS011;55318;52.068;5.188;2024-01-11T02:21:48;13.2;;;6.7;;
68375;SDS011;55318;52.068;5.188;2024-01-11T02:23:29;14.9;;;8.31;;
68375;SDS011;55318;52.068;5.188;2024-01-11T02:26:57;13.8;;;7.6;;
68375;SDS011;55318;52.068;5.188;2024-01-11T02:28:34;14.9;;;8.31;;
68375;SDS011;55318;52.068;5.188;2024-01-11T02:30:10;14.6;;;8.1;;
68375;SDS011;55318;52.068;5.188;2024-01-11T02:33:23;14.6;;;7.8;;
68375;SDS011;55318;52.068;5.188;2024-01-11T02:34:59;15.5;;;7.5;;
68375;SDS011;55318;52.068;5.188;2024-01-11T02:36:38;14.1;;;7.3;;
68375;SDS011;55318;52.068;5.188;2024-01-11T02:38:15;13.8;;;7.6;;
68375;SDS011;55318;52.068;5.188;2024-01-11T02:41:29;14.6;;;8.0;;
68375;SDS011;55318;52.068;5.188;2024-01-11T02:43:07;14.4;;;7.8;;
68375;SDS011;55318;52.068;5.188;2024-01-11T02:44:44;15.8;;;8.71;;
68375;SDS011;55318;52.068;5.188;2024-01-11T02:47:56;13.6;;;7.7;;
68375;SDS011;55318;52.068;5.188;2024-01-11T02:49:32;15.4;;;8.4;;
68375;SDS011;55318;52.068;5.188;2024-01-11T02:51:08;15.9;;;8.31;;
68375;SDS011;55318;52.068;5.188;2024-01-11T02:52:44;14.3;;;8.1;;
68375;SDS011;55318;52.068;5.188;2024-01-11T02:55:56;17.8;;;9.6;;
68375;SDS011;55318;52.068;5.188;2024-01-11T02:57:32;15.0;;;8.71;;
68375;SDS011;55318;52.068;5.188;2024-01-11T02:59:12;13.4;;;7.9;;
68375;SDS011;55318;52.068;5.188;2024-01-11T03:02:24;14.9;;;8.71;;
68375;SDS011;55318;52.068;5.188;2024-01-11T03:04:00;18.2;;;9.31;;
68375;SDS011;55318;52.068;5.188;2024-01-11T03:05:35;16.4;;;9.4;;
68375;SDS011;55318;52.068;5.188;2024-01-11T03:08:48;15.7;;;8.0;;
68375;SDS011;55318;52.068;5.188;2024-01-11T03:10:24;13.8;;;8.1;;
68375;SDS011;55318;52.068;5.188;2024-01-11T03:12:00;17.2;;;8.81;;
68375;SDS011;55318;52.068;5.188;2024-01-11T03:15:12;19.11;;;9.1;;
68375;SDS011;55318;52.068;5.188;2024-01-11T03:16:49;17.2;;;9.5;;
68375;SDS011;55318;52.068;5.188;2024-01-11T03:18:25;16.11;;;8.6;;
68375;SDS011;55318;52.068;5.188;2024-01-11T03:20:01;15.3;;;9.0;;
68375;SDS011;55318;52.068;5.188;2024-01-11T03:23:18;17.7;;;8.31;;
68375;SDS011;55318;52.068;5.188;2024-01-11T03:24:54;19.11;;;10.4;;
68375;SDS011;55318;52.068;5.188;2024-01-11T03:26:30;17.2;;;9.5;;
68375;SDS011;55318;52.068;5.188;2024-01-11T03:29:42;17.11;;;9.6;;
68375;SDS011;55318;52.068;5.188;2024-01-11T03:31:18;16.61;;;9.31;;
68375;SDS011;55318;52.068;5.188;2024-01-11T03:32:54;16.7;;;9.1;;
68375;SDS011;55318;52.068;5.188;2024-01-11T03:36:07;17.5;;;9.71;;
68375;SDS011;55318;52.068;5.188;2024-01-11T03:37:44;18.7;;;9.9;;
68375;SDS011;55318;52.068;5.188;2024-01-11T03:39:20;19.2;;;10.21;;
68375;SDS011;55318;52.068;5.188;2024-01-11T03:40:56;20.41;;;10.0;;
68375;SDS011;55318;52.068;5.188;2024-01-11T03:44:08;19.2;;;10.3;;
68375;SDS011;55318;52.068;5.188;2024-01-11T03:45:44;19.7;;;10.21;;
68375;SDS011;55318;52.068;5.188;2024-01-11T03:47:20;21.8;;;11.3;;
68375;SDS011;55318;52.068;5.188;2024-01-11T03:50:32;20.0;;;11.3;;
68375;SDS011;55318;52.068;5.188;2024-01-11T03:52:08;18.41;;;10.5;;
68375;SDS011;55318;52.068;5.188;2024-01-11T03:53:45;21.0;;;10.7;;
68375;SDS011;55318;52.068;5.188;2024-01-11T03:56:57;20.8;;;10.6;;
68375;SDS011;55318;52.068;5.188;2024-01-11T03:58:33;20.2;;;11.0;;
68375;SDS011;55318;52.068;5.188;2024-01-11T04:00:11;21.5;;;11.3;;
68375;SDS011;55318;52.068;5.188;2024-01-11T04:01:48;22.4;;;11.3;;
68375;SDS011;55318;52.068;5.188;2024-01-11T04:05:00;21.2;;;10.8;;
68375;SDS011;55318;52.068;5.188;2024-01-11T04:06:36;20.41;;;11.0;;
68375;SDS011;55318;52.068;5.188;2024-01-11T04:08:12;21.5;;;12.0;;
68375;SDS011;55318;52.068;5.188;2024-01-11T04:11:26;19.3;;;10.9;;
68375;SDS011;55318;52.068;5.188;2024-01-11T04:13:03;19.8;;;10.4;;
68375;SDS011;55318;52.068;5.188;2024-01-11T04:14:39;21.2;;;11.6;;
68375;SDS011;55318;52.068;5.188;2024-01-11T04:17:51;20.9;;;11.4;;
68375;SDS011;55318;52.068;5.188;2024-01-11T04:19:27;24.8;;;12.7;;
68375;SDS011;55318;52.068;5.188;2024-01-11T04:21:03;21.2;;;12.2;;
68375;SDS011;55318;52.068;5.188;2024-01-11T04:24:15;22.4;;;11.3;;
68375;SDS011;55318;52.068;5.188;2024-01-11T04:25:51;21.4;;;11.9;;
68375;SDS011;55318;52.068;5.188;2024-01-11T04:27:27;25.6;;;13.0;;
68375;SDS011;55318;52.068;5.188;2024-01-11T04:29:04;20.7;;;11.8;;
68375;SDS011;55318;52.068;5.188;2024-01-11T04:33:53;24.9;;;13.4;;
68375;SDS011;55318;52.068;5.188;2024-01-11T04:35:29;25.4;;;13.0;;
68375;SDS011;55318;52.068;5.188;2024-01-11T04:38:42;23.6;;;13.6;;
68375;SDS011;55318;52.068;5.188;2024-01-11T04:40:18;24.6;;;12.7;;
68375;SDS011;55318;52.068;5.188;2024-01-11T04:41:54;24.4;;;12.2;;
68375;SDS011;55318;52.068;5.188;2024-01-11T04:45:07;22.0;;;13.2;;
68375;SDS011;55318;52.068;5.188;2024-01-11T04:46:43;24.3;;;13.4;;
68375;SDS011;55318;52.068;5.188;2024-01-11T04:48:19;23.8;;;12.7;;
68375;SDS011;55318;52.068;5.188;2024-01-11T04:49:56;24.7;;;13.2;;
68375;SDS011;55318;52.068;5.188;2024-01-11T04:53:08;25.3;;;13.3;;
68375;SDS011;55318;52.068;5.188;2024-01-11T04:54:44;27.5;;;14.2;;
68375;SDS011;55318;52.068;5.188;2024-01-11T04:56:20;26.2;;;13.9;;
68375;SDS011;55318;52.068;5.188;2024-01-11T04:59:32;25.5;;;13.6;;
68375;SDS011;55318;52.068;5.188;2024-01-11T05:01:11;26.8;;;13.4;;
68375;SDS011;55318;52.068;5.188;2024-01-11T05:05:59;25.5;;;13.2;;
68375;SDS011;55318;52.068;5.188;2024-01-11T05:07:36;26.5;;;13.8;;
68375;SDS011;55318;52.068;5.188;2024-01-11T05:09:12;25.5;;;14.3;;
68375;SDS011;55318;52.068;5.188;2024-01-11T05:10:48;24.6;;;14.0;;
68375;SDS011;55318;52.068;5.188;2024-01-11T05:13:59;28.8;;;15.4;;
68375;SDS011;55318;52.068;5.188;2024-01-11T05:15:35;28.6;;;14.9;;
68375;SDS011;55318;52.068;5.188;2024-01-11T05:17:11;25.3;;;14.3;;
68375;SDS011;55318;52.068;5.188;2024-01-11T05:20:25;24.7;;;13.6;;
68375;SDS011;55318;52.068;5.188;2024-01-11T05:22:01;22.7;;;12.9;;
68375;SDS011;55318;52.068;5.188;2024-01-11T05:23:39;29.5;;;15.6;;
68375;SDS011;55318;52.068;5.188;2024-01-11T05:26:52;26.1;;;13.6;;
68375;SDS011;55318;52.068;5.188;2024-01-11T05:28:28;30.3;;;15.5;;
68375;SDS011;55318;52.068;5.188;2024-01-11T05:30:04;28.8;;;15.3;;
68375;SDS011;55318;52.068;5.188;2024-01-11T05:33:17;28.8;;;15.5;;
68375;SDS011;55318;52.068;5.188;2024-01-11T05:34:53;27.9;;;15.8;;
68375;SDS011;55318;52.068;5.188;2024-01-11T05:36:29;26.6;;;14.6;;
68375;SDS011;55318;52.068;5.188;2024-01-11T05:38:05;28.4;;;15.8;;
68375;SDS011;55318;52.068;5.188;2024-01-11T05:41:17;27.2;;;14.9;;
68375;SDS011;55318;52.068;5.188;2024-01-11T05:42:53;27.7;;;15.4;;
68375;SDS011;55318;52.068;5.188;2024-01-11T05:44:29;28.7;;;15.4;;
68375;SDS011;55318;52.068;5.188;2024-01-11T05:47:44;29.6;;;16.0;;
68375;SDS011;55318;52.068;5.188;2024-01-11T05:49:20;30.1;;;16.0;;
68375;SDS011;55318;52.068;5.188;2024-01-11T05:50:56;27.5;;;15.6;;
68375;SDS011;55318;52.068;5.188;2024-01-11T05:54:08;26.2;;;15.2;;
68375;SDS011;55318;52.068;5.188;2024-01-11T05:55:44;30.8;;;16.8;;
68375;SDS011;55318;52.068;5.188;2024-01-11T05:57:20;28.5;;;16.3;;
68375;SDS011;55318;52.068;5.188;2024-01-11T05:58:56;26.9;;;14.9;;
68375;SDS011;55318;52.068;5.188;2024-01-11T06:02:09;28.4;;;15.7;;
68375;SDS011;55318;52.068;5.188;2024-01-11T06:03:45;30.0;;;17.61;;
68375;SDS011;55318;52.068;5.188;2024-01-11T06:05:21;30.0;;;17.0;;
68375;SDS011;55318;52.068;5.188;2024-01-11T06:08:33;33.71;;;17.41;;
68375;SDS011;55318;52.068;5.188;2024-01-11T06:10:09;28.4;;;17.11;;
68375;SDS011;55318;52.068;5.188;2024-01-11T06:11:45;28.3;;;16.8;;
68375;SDS011;55318;52.068;5.188;2024-01-11T06:14:58;30.4;;;16.8;;
68375;SDS011;55318;52.068;5.188;2024-01-11T06:16:34;29.9;;;17.61;;
68375;SDS011;55318;52.068;5.188;2024-01-11T06:18:10;30.5;;;17.61;;
68375;SDS011;55318;52.068;5.188;2024-01-11T06:21:22;32.3;;;16.5;;
68375;SDS011;55318;52.068;5.188;2024-01-11T06:22:58;28.4;;;16.8;;
68375;SDS011;55318;52.068;5.188;2024-01-11T06:24:34;28.6;;;15.9;;
68375;SDS011;55318;52.068;5.188;2024-01-11T06:26:10;29.3;;;17.2;;
68375;SDS011;55318;52.068;5.188;2024-01-11T06:29:22;28.2;;;16.9;;
68375;SDS011;55318;52.068;5.188;2024-01-11T06:30:59;29.1;;;17.11;;
68375;SDS011;55318;52.068;5.188;2024-01-11T06:32:35;30.2;;;17.5;;
68375;SDS011;55318;52.068;5.188;2024-01-11T06:35:47;27.3;;;16.11;;
68375;SDS011;55318;52.068;5.188;2024-01-11T06:37:23;27.2;;;16.5;;
68375;SDS011;55318;52.068;5.188;2024-01-11T06:38:59;29.7;;;16.2;;
68375;SDS011;55318;52.068;5.188;2024-01-11T06:42:11;28.3;;;16.8;;
68375;SDS011;55318;52.068;5.188;2024-01-11T06:43:47;29.6;;;17.2;;
68375;SDS011;55318;52.068;5.188;2024-01-11T06:45:23;31.0;;;17.41;;
68375;SDS011;55318;52.068;5.188;2024-01-11T06:48:36;28.0;;;17.11;;
68375;SDS011;55318;52.068;5.188;2024-01-11T06:50:12;32.4;;;18.91;;
68375;SDS011;55318;52.068;5.188;2024-01-11T06:51:48;31.4;;;17.11;;
68375;SDS011;55318;52.068;5.188;2024-01-11T06:53:24;27.2;;;15.4;;
68375;SDS011;55318;52.068;5.188;2024-01-11T06:56:36;35.81;;;18.7;;
68375;SDS011;55318;52.068;5.188;2024-01-11T06:58:12;33.4;;;18.5;;
68375;SDS011;55318;52.068;5.188;2024-01-11T06:59:48;31.6;;;18.3;;
68375;SDS011;55318;52.068;5.188;2024-01-11T07:03:00;32.6;;;18.41;;
68375;SDS011;55318;52.068;5.188;2024-01-11T07:04:36;30.4;;;16.3;;
68375;SDS011;55318;52.068;5.188;2024-01-11T07:06:13;30.7;;;17.8;;
68375;SDS011;55318;52.068;5.188;2024-01-11T07:09:25;29.6;;;17.8;;
68375;SDS011;55318;52.068;5.188;2024-01-11T07:11:01;29.8;;;17.41;;
68375;SDS011;55318;52.068;5.188;2024-01-11T07:12:38;33.0;;;19.11;;
68375;SDS011;55318;52.068;5.188;2024-01-11T07:14:15;31.9;;;18.41;;
68375;SDS011;55318;52.068;5.188;2024-01-11T07:17:30;28.0;;;15.6;;
68375;SDS011;55318;52.068;5.188;2024-01-11T07:19:06;28.8;;;16.7;;
68375;SDS011;55318;52.068;5.188;2024-01-11T07:20:42;29.0;;;17.2;;
68375;SDS011;55318;52.068;5.188;2024-01-11T07:23:55;30.4;;;16.61;;
68375;SDS011;55318;52.068;5.188;2024-01-11T07:25:31;31.4;;;17.5;;
68375;SDS011;55318;52.068;5.188;2024-01-11T07:27:07;31.4;;;17.91;;
68375;SDS011;55318;52.068;5.188;2024-01-11T07:30:19;31.3;;;18.7;;
68375;SDS011;55318;52.068;5.188;2024-01-11T07:31:55;31.5;;;17.5;;
68375;SDS011;55318;52.068;5.188;2024-01-11T07:33:31;33.0;;;19.0;;
68375;SDS011;55318;52.068;5.188;2024-01-11T07:36:44;35.1;;;19.11;;
68375;SDS011;55318;52.068;5.188;2024-01-11T07:38:20;34.21;;;19.8;;
68375;SDS011;55318;52.068;5.188;2024-01-11T07:39:56;33.0;;;20.0;;
68375;SDS011;55318;52.068;5.188;2024-01-11T07:41:32;34.1;;;19.8;;
68375;SDS011;55318;52.068;5.188;2024-01-11T07:44:45;32.5;;;18.2;;
68375;SDS011;55318;52.068;5.188;2024-01-11T07:46:21;35.0;;;19.91;;
68375;SDS011;55318;52.068;5.188;2024-01-11T07:47:57;36.21;;;21.1;;
68375;SDS011;55318;52.068;5.188;2024-01-11T07:51:09;31.7;;;19.3;;
68375;SDS011;55318;52.068;5.188;2024-01-11T07:52:45;33.1;;;18.8;;
68375;SDS011;55318;52.068;5.188;2024-01-11T07:54:21;34.4;;;20.2;;
68375;SDS011;55318;52.068;5.188;2024-01-11T07:57:33;30.8;;;18.61;;
68375;SDS011;55318;52.068;5.188;2024-01-11T07:59:10;30.2;;;17.91;;
68375;SDS011;55318;52.068;5.188;2024-01-11T08:00:47;32.71;;;17.8;;
68375;SDS011;55318;52.068;5.188;2024-01-11T08:02:27;33.71;;;19.41;;
68375;SDS011;55318;52.068;5.188;2024-01-11T08:05:40;32.1;;;19.2;;
68375;SDS011;55318;52.068;5.188;2024-01-11T08:07:16;32.71;;;19.5;;
68375;SDS011;55318;52.068;5.188;2024-01-11T08:08:52;37.6;;;20.9;;
68375;SDS011;55318;52.068;5.188;2024-01-11T08:12:04;31.3;;;18.5;;
68375;SDS011;55318;52.068;5.188;2024-01-11T08:13:41;34.31;;;19.5;;
68375;SDS011;55318;52.068;5.188;2024-01-11T08:15:17;31.6;;;19.11;;
68375;SDS011;55318;52.068;5.188;2024-01-11T08:18:30;34.6;;;18.0;;
68375;SDS011;55318;52.068;5.188;2024-01-11T08:20:06;35.31;;;20.11;;
68375;SDS011;55318;52.068;5.188;2024-01-11T08:21:43;33.9;;;18.8;;
68375;SDS011;55318;52.068;5.188;2024-01-11T08:23:19;33.5;;;18.61;;
68375;SDS011;55318;52.068;5.188;2024-01-11T08:26:31;32.0;;;17.3;;
68375;SDS011;55318;52.068;5.188;2024-01-11T08:28:07;33.0;;;18.3;;
68375;SDS011;55318;52.068;5.188;2024-01-11T08:29:43;32.8;;;19.41;;
68375;SDS011;55318;52.068;5.188;2024-01-11T08:32:55;31.6;;;18.61;;
68375;SDS011;55318;52.068;5.188;2024-01-11T08:34:31;30.3;;;18.5;;
68375;SDS011;55318;52.068;5.188;2024-01-11T08:36:08;33.1;;;18.5;;
68375;SDS011;55318;52.068;5.188;2024-01-11T08:39:20;31.6;;;18.8;;
68375;SDS011;55318;52.068;5.188;2024-01-11T08:40:56;35.9;;;19.61;;
68375;SDS011;55318;52.068;5.188;2024-01-11T08:42:32;32.3;;;18.2;;
68375;SDS011;55318;52.068;5.188;2024-01-11T08:45:45;31.4;;;17.11;;
68375;SDS011;55318;52.068;5.188;2024-01-11T08:47:24;30.6;;;18.0;;
68375;SDS011;55318;52.068;5.188;2024-01-11T08:49:00;31.0;;;16.8;;
68375;SDS011;55318;52.068;5.188;2024-01-11T08:50:37;33.4;;;17.0;;
68375;SDS011;55318;52.068;5.188;2024-01-11T08:53:49;30.0;;;17.2;;
68375;SDS011;55318;52.068;5.188;2024-01-11T08:55:26;31.0;;;17.0;;
68375;SDS011;55318;52.068;5.188;2024-01-11T08:57:02;32.71;;;16.9;;
68375;SDS011;55318;52.068;5.188;2024-01-11T09:00:15;28.0;;;16.2;;
68375;SDS011;55318;52.068;5.188;2024-01-11T09:01:51;29.7;;;15.9;;
68375;SDS011;55318;52.068;5.188;2024-01-11T09:03:27;29.6;;;15.3;;
68375;SDS011;55318;52.068;5.188;2024-01-11T09:06:40;31.2;;;17.41;;
68375;SDS011;55318;52.068;5.188;2024-01-11T09:08:16;28.7;;;16.0;;
68375;SDS011;55318;52.068;5.188;2024-01-11T09:09:52;31.3;;;16.9;;
68375;SDS011;55318;52.068;5.188;2024-01-11T09:11:28;28.5;;;16.8;;
68375;SDS011;55318;52.068;5.188;2024-01-11T09:14:41;27.9;;;15.7;;
68375;SDS011;55318;52.068;5.188;2024-01-11T09:16:17;27.9;;;16.5;;
68375;SDS011;55318;52.068;5.188;2024-01-11T09:17:53;29.8;;;17.2;;
68375;SDS011;55318;52.068;5.188;2024-01-11T09:21:05;27.9;;;16.0;;
68375;SDS011;55318;52.068;5.188;2024-01-11T09:22:41;30.9;;;16.11;;
68375;SDS011;55318;52.068;5.188;2024-01-11T09:24:17;27.9;;;16.4;;
68375;SDS011;55318;52.068;5.188;2024-01-11T09:27:29;29.3;;;17.3;;
68375;SDS011;55318;52.068;5.188;2024-01-11T09:29:05;29.5;;;17.2;;
68375;SDS011;55318;52.068;5.188;2024-01-11T09:30:41;28.3;;;16.2;;
68375;SDS011;55318;52.068;5.188;2024-01-11T09:32:18;28.7;;;15.5;;
68375;SDS011;55318;52.068;5.188;2024-01-11T09:35:30;26.7;;;15.2;;
68375;SDS011;55318;52.068;5.188;2024-01-11T09:37:06;25.7;;;15.1;;
68375;SDS011;55318;52.068;5.188;2024-01-11T09:38:42;28.0;;;16.0;;
68375;SDS011;55318;52.068;5.188;2024-01-11T09:41:57;27.0;;;15.1;;
68375;SDS011;55318;52.068;5.188;2024-01-11T09:43:34;25.4;;;15.1;;
68375;SDS011;55318;52.068;5.188;2024-01-11T09:45:12;25.4;;;15.1;;
68375;SDS011;55318;52.068;5.188;2024-01-11T09:48:25;26.0;;;15.6;;
68375;SDS011;55318;52.068;5.188;2024-01-11T09:50:03;22.7;;;14.7;;
68375;SDS011;55318;52.068;5.188;2024-01-11T09:51:40;26.6;;;15.7;;
68375;SDS011;55318;52.068;5.188;2024-01-11T09:53:19;25.8;;;15.6;;
68375;SDS011;55318;52.068;5.188;2024-01-11T09:56:34;27.4;;;16.3;;
68375;SDS011;55318;52.068;5.188;2024-01-11T09:58:10;25.1;;;15.2;;
68375;SDS011;55318;52.068;5.188;2024-01-11T09:59:47;28.6;;;16.4;;
68375;SDS011;55318;52.068;5.188;2024-01-11T10:03:03;25.3;;;15.2;;
68375;SDS011;55318;52.068;5.188;2024-01-11T10:04:41;24.6;;;15.5;;
68375;SDS011;55318;52.068;5.188;2024-01-11T10:06:17;24.8;;;14.2;;
68375;SDS011;55318;52.068;5.188;2024-01-11T10:07:54;25.8;;;15.9;;
68375;SDS011;55318;52.068;5.188;2024-01-11T10:11:07;24.2;;;14.2;;
68375;SDS011;55318;52.068;5.188;2024-01-11T10:12:43;25.2;;;14.4;;
68375;SDS011;55318;52.068;5.188;2024-01-11T10:14:19;26.0;;;14.8;;
68375;SDS011;55318;52.068;5.188;2024-01-11T10:17:45;26.5;;;14.8;;
68375;SDS011;55318;52.068;5.188;2024-01-11T10:19:21;26.1;;;13.6;;
68375;SDS011;55318;52.068;5.188;2024-01-11T10:20:57;24.6;;;13.4;;
68375;SDS011;55318;52.068;5.188;2024-01-11T10:22:33;23.4;;;12.9;;
68375;SDS011;55318;52.068;5.188;2024-01-11T10:25:45;23.8;;;12.6;;
68375;SDS011;55318;52.068;5.188;2024-01-11T10:27:23;24.2;;;14.1;;
68375;SDS011;55318;52.068;5.188;2024-01-11T10:29:05;26.4;;;13.2;;
68375;SDS011;55318;52.068;5.188;2024-01-11T10:32:21;26.2;;;14.3;;
68375;SDS011;55318;52.068;5.188;2024-01-11T10:33:57;28.3;;;14.1;;
68375;SDS011;55318;52.068;5.188;2024-01-11T10:35:33;28.5;;;14.2;;
68375;SDS011;55318;52.068;5.188;2024-01-11T10:37:11;28.0;;;14.4;;
68375;SDS011;55318;52.068;5.188;2024-01-11T10:40:28;25.8;;;12.9;;
68375;SDS011;55318;52.068;5.188;2024-01-11T10:42:05;26.0;;;13.1;;
68375;SDS011;55318;52.068;5.188;2024-01-11T10:43:41;25.6;;;12.9;;
68375;SDS011;55318;52.068;5.188;2024-01-11T10:46:56;25.7;;;13.4;;
68375;SDS011;55318;52.068;5.188;2024-01-11T10:48:32;26.2;;;14.0;;
68375;SDS011;55318;52.068;5.188;2024-01-11T10:50:13;24.2;;;13.4;;
68375;SDS011;55318;52.068;5.188;2024-01-11T10:51:52;28.7;;;13.7;;
68375;SDS011;55318;52.068;5.188;2024-01-11T10:55:17;22.8;;;12.0;;
68375;SDS011;55318;52.068;5.188;2024-01-11T10:56:54;24.6;;;11.8;;
68375;SDS011;55318;52.068;5.188;2024-01-11T10:58:33;27.3;;;13.0;;
68375;SDS011;55318;52.068;5.188;2024-01-11T11:00:11;24.5;;;12.1;;
68375;SDS011;55318;52.068;5.188;2024-01-11T11:03:25;22.1;;;10.9;;
68375;SDS011;55318;52.068;5.188;2024-01-11T11:05:02;23.0;;;11.9;;
68375;SDS011;55318;52.068;5.188;2024-01-11T11:06:40;25.0;;;12.5;;
68375;SDS011;55318;52.068;5.188;2024-01-11T11:09:55;25.5;;;12.4;;
68375;SDS011;55318;52.068;5.188;2024-01-11T11:11:33;25.2;;;12.2;;
68375;SDS011;55318;52.068;5.188;2024-01-11T11:13:13;24.8;;;11.7;;
68375;SDS011;55318;52.068;5.188;2024-01-11T11:14:50;23.7;;;11.7;;
68375;SDS011;55318;52.068;5.188;2024-01-11T11:18:04;21.6;;;11.1;;
68375;SDS011;55318;52.068;5.188;2024-01-11T11:19:40;22.3;;;10.6;;
68375;SDS011;55318;52.068;5.188;2024-01-11T11:21:18;18.7;;;10.5;;
68375;SDS011;55318;52.068;5.188;2024-01-11T11:24:42;21.3;;;11.2;;
68375;SDS011;55318;52.068;5.188;2024-01-11T11:26:19;19.0;;;10.4;;
68375;SDS011;55318;52.068;5.188;2024-01-11T11:27:55;19.41;;;10.8;;
68375;SDS011;55318;52.068;5.188;2024-01-11T11:29:31;20.11;;;10.21;;
68375;SDS011;55318;52.068;5.188;2024-01-11T11:32:43;21.0;;;10.7;;
68375;SDS011;55318;52.068;5.188;2024-01-11T11:34:31;23.4;;;11.6;;
68375;SDS011;55318;52.068;5.188;2024-01-11T11:36:16;19.91;;;11.0;;
68375;SDS011;55318;52.068;5.188;2024-01-11T11:37:53;21.7;;;11.2;;
68375;SDS011;55318;52.068;5.188;2024-01-11T11:41:08;25.7;;;12.3;;
68375;SDS011;55318;52.068;5.188;2024-01-11T11:42:44;22.3;;;12.7;;
68375;SDS011;55318;52.068;5.188;2024-01-11T11:44:21;19.7;;;10.21;;
68375;SDS011;55318;52.068;5.188;2024-01-11T11:47:33;22.1;;;11.0;;
68375;SDS011;55318;52.068;5.188;2024-01-11T11:49:11;18.8;;;10.1;;
68375;SDS011;55318;52.068;5.188;2024-01-11T11:50:47;22.0;;;11.0;;
68375;SDS011;55318;52.068;5.188;2024-01-11T11:54:00;24.7;;;11.3;;
68375;SDS011;55318;52.068;5.188;2024-01-11T11:55:37;23.0;;;11.7;;
68375;SDS011;55318;52.068;5.188;2024-01-11T11:57:16;23.3;;;10.5;;
68375;SDS011;55318;52.068;5.188;2024-01-11T11:58:53;23.3;;;10.5;;
68375;SDS011;55318;52.068;5.188;2024-01-11T12:02:06;22.6;;;11.0;;
68375;SDS011;55318;52.068;5.188;2024-01-11T12:03:52;21.6;;;11.2;;
68375;SDS011;55318;52.068;5.188;2024-01-11T12:05:28;21.9;;;9.5;;
68375;SDS011;55318;52.068;5.188;2024-01-11T12:07:04;20.2;;;10.7;;
68375;SDS011;55318;52.068;5.188;2024-01-11T12:10:20;20.6;;;10.7;;
68375;SDS011;55318;52.068;5.188;2024-01-11T12:11:56;20.2;;;9.4;;
68375;SDS011;55318;52.068;5.188;2024-01-11T12:13:33;24.5;;;10.7;;
68375;SDS011;55318;52.068;5.188;2024-01-11T12:16:45;21.8;;;10.8;;
68375;SDS011;55318;52.068;5.188;2024-01-11T12:18:21;21.1;;;9.81;;
68375;SDS011;55318;52.068;5.188;2024-01-11T12:19:57;20.5;;;9.81;;
68375;SDS011;55318;52.068;5.188;2024-01-11T12:23:12;20.2;;;10.0;;
68375;SDS011;55318;52.068;5.188;2024-01-11T12:24:48;21.6;;;10.5;;
68375;SDS011;55318;52.068;5.188;2024-01-11T12:26:24;20.11;;;8.9;;
68375;SDS011;55318;52.068;5.188;2024-01-11T12:28:01;18.2;;;9.0;;
68375;SDS011;55318;52.068;5.188;2024-01-11T12:31:15;19.0;;;9.31;;
68375;SDS011;55318;52.068;5.188;2024-01-11T12:32:52;18.5;;;9.31;;
68375;SDS011;55318;52.068;5.188;2024-01-11T12:34:29;19.5;;;8.71;;
68375;SDS011;55318;52.068;5.188;2024-01-11T12:37:52;22.6;;;10.4;;
68375;SDS011;55318;52.068;5.188;2024-01-11T12:39:28;19.11;;;9.0;;